Terminal Aerodrome Forecast
Issued by NWS

Home | Current Version | Previous Version | Text Only | Print | Product List | Glossary On
Versions: 1 2 3 4 5 6 7 8 9 10 11 12 13 14 15 16
448
FTUS45 KRIW 061927 AAB
TAFWRL
TAF AMD
KWRL 061927Z 0619/0718 30015G25KT 5SM FU VCSH SCT030
     FM070200 34015G25KT 6SM -RA SCT020 BKN035
     FM070700 34013KT 5SM -RA SCT015 BKN025=

USA.gov is the U.S. government's official web portal to all federal, state and local government web resources and services.